createdAt,value
2018-02-11T00:00:08.418Z,100500.55
2018-02-11T00:02:37.547Z,100496.45
2018-02-11T00:05:06.634Z,100496.90
2018-02-11T00:07:35.737Z,100492.66
2018-02-11T00:10:05.611Z,100500.39
2018-02-11T00:12:35.485Z,100491.58
2018-02-11T00:15:04.603Z,100487.74
2018-02-11T00:17:33.711Z,100480.66
2018-02-11T00:20:03.575Z,100477.72
2018-02-11T00:22:32.675Z,100476.66
2018-02-11T00:25:01.757Z,100469.64
2018-02-11T00:27:30.887Z,100464.52
2018-02-11T00:30:00.018Z,100460.45
2018-02-11T00:32:29.904Z,100460.80
2018-02-11T00:35:00.313Z,100452.21
2018-02-11T00:37:34.951Z,100461.17
2018-02-11T00:40:04.078Z,100453.61
2018-02-11T00:42:33.966Z,100436.58
2018-02-11T00:45:03.070Z,100439.44
2018-02-11T00:47:32.145Z,100431.74
2018-02-11T00:50:01.280Z,100435.41
2018-02-11T00:52:30.378Z,100429.30
2018-02-11T00:55:00.253Z,100426.95
2018-02-11T00:57:29.357Z,100434.20
2018-02-11T00:59:58.461Z,100430.66
2018-02-11T01:02:27.557Z,100428.33
2018-02-11T01:04:57.454Z,100414.21
2018-02-11T01:07:26.597Z,100415.54
2018-02-11T01:09:55.715Z,100412.95
2018-02-11T01:12:24.811Z,100417.51
2018-02-11T01:14:53.917Z,100419.00
2018-02-11T01:17:23.025Z,100398.77
2018-02-11T01:19:52.123Z,100392.38
2018-02-11T01:22:21.205Z,100386.50
2018-02-11T01:24:50.326Z,100380.46
2018-02-11T01:27:19.421Z,100376.94
2018-02-11T01:29:48.529Z,100371.80
2018-02-11T01:32:18.158Z,100375.08
2018-02-11T01:34:48.042Z,100368.00
2018-02-11T01:37:18.633Z,100367.04
2018-02-11T01:39:47.734Z,100362.30
2018-02-11T01:42:16.858Z,100353.42
2018-02-11T01:44:46.686Z,100360.35
2018-02-11T01:47:15.816Z,100353.41
2018-02-11T01:49:45.665Z,100350.44
2018-02-11T01:52:14.810Z,100348.25
2018-02-11T01:54:43.896Z,100339.91
2018-02-11T01:57:13.005Z,100335.48
2018-02-11T01:59:42.869Z,100325.63
2018-02-11T02:02:11.989Z,100323.02
2018-02-11T02:04:41.096Z,100318.65
2018-02-11T02:07:10.218Z,100314.56
2018-02-11T02:09:40.071Z,100309.97
2018-02-11T02:12:09.223Z,100304.39
2018-02-11T02:14:39.066Z,100303.00
2018-02-11T02:17:08.156Z,100298.33
2018-02-11T02:19:37.286Z,100293.50
2018-02-11T02:22:06.406Z,100290.79
2018-02-11T02:24:35.531Z,100289.98
2018-02-11T02:27:05.389Z,100278.69
2018-02-11T02:29:34.502Z,100285.30
2018-02-11T02:32:03.632Z,100276.53
2018-02-11T02:34:33.520Z,100274.87
2018-02-11T02:37:02.634Z,100264.97
2018-02-11T02:39:32.495Z,100256.86
2018-02-11T02:42:01.597Z,100257.27
2018-02-11T02:44:30.688Z,100243.39
2018-02-11T02:46:59.797Z,100245.06
2018-02-11T02:49:28.890Z,100251.25
2018-02-11T02:51:58.014Z,100249.00
2018-02-11T02:54:27.878Z,100244.75
2018-02-11T02:56:56.992Z,100240.37
2018-02-11T02:59:26.078Z,100237.23
2018-02-11T03:01:55.189Z,100236.92
2018-02-11T03:04:24.298Z,100234.13
2018-02-11T03:06:53.395Z,100229.73
2018-02-11T03:09:22.515Z,100225.48
2018-02-11T03:11:52.408Z,100221.58
2018-02-11T03:14:21.503Z,100208.55
2018-02-11T03:16:50.625Z,100206.05
2018-02-11T03:19:20.520Z,100200.80
2018-02-11T03:21:49.612Z,100188.27
2018-02-11T03:24:18.709Z,100187.35
2018-02-11T03:26:47.806Z,100181.68
2018-02-11T03:29:16.902Z,100176.53
2018-02-11T03:31:46.009Z,100172.81
2018-02-11T03:34:15.102Z,100161.42
2018-02-11T03:36:45.001Z,100161.83
2018-02-11T03:39:14.083Z,100153.34
2018-02-11T03:41:43.207Z,100142.52
2018-02-11T03:44:12.285Z,100144.97
2018-02-11T03:46:41.409Z,100144.55
2018-02-11T03:49:10.505Z,100148.63
2018-02-11T03:51:40.384Z,100135.73
2018-02-11T03:54:09.482Z,100126.86
2018-02-11T03:56:39.337Z,100129.52
2018-02-11T03:59:09.234Z,100122.08
2018-02-11T04:01:38.325Z,100126.54
2018-02-11T04:04:07.448Z,100121.05
2018-02-11T04:06:37.318Z,100117.36
2018-02-11T04:09:06.431Z,100114.18
2018-02-11T04:11:35.522Z,100114.02
2018-02-11T04:14:04.612Z,100109.70
2018-02-11T04:16:33.734Z,100093.32
2018-02-11T04:19:03.581Z,100091.34
2018-02-11T04:21:32.690Z,100082.39
2018-02-11T04:24:01.781Z,100078.30
2018-02-11T04:26:30.901Z,100079.08
2018-02-11T04:28:59.998Z,100071.73
2018-02-11T04:31:29.104Z,100070.50
2018-02-11T04:33:58.245Z,100067.56
2018-02-11T04:36:27.360Z,100061.22
2018-02-11T04:38:56.502Z,100057.00
2018-02-11T04:41:25.630Z,100054.80
2018-02-11T04:43:55.468Z,100047.05
2018-02-11T04:46:24.546Z,100043.73
2018-02-11T04:48:53.661Z,100037.91
2018-02-11T04:51:22.762Z,100034.67
2018-02-11T04:53:52.640Z,100026.72
2018-02-11T04:56:22.481Z,100021.40
2018-02-11T04:58:51.602Z,100018.63
2018-02-11T05:01:20.710Z,100017.10
2018-02-11T05:03:49.805Z,100010.67
2018-02-11T05:06:18.933Z,100015.56
2018-02-11T05:08:48.785Z,100005.86
2018-02-11T05:11:17.888Z,99995.91
2018-02-11T05:13:46.986Z,99991.69
2018-02-11T05:16:16.089Z,99981.59
2018-02-11T05:18:45.183Z,99979.43
2018-02-11T05:21:14.278Z,99973.27
2018-02-11T05:23:44.283Z,99969.91
2018-02-11T05:26:13.398Z,99966.45
2018-02-11T05:28:42.520Z,99968.13
2018-02-11T05:31:11.593Z,99963.14
2018-02-11T05:33:40.679Z,99961.41
2018-02-11T05:36:09.774Z,99962.97
2018-02-11T05:38:39.203Z,99961.02
2018-02-11T05:41:08.305Z,99965.47
2018-02-11T05:43:37.404Z,99964.20
2018-02-11T05:46:06.501Z,99954.66
2018-02-11T05:48:36.374Z,99949.45
2018-02-11T05:51:05.461Z,99954.39
2018-02-11T05:53:34.551Z,99937.41
2018-02-11T05:56:03.651Z,99930.17
2018-02-11T05:58:32.746Z,99922.72
2018-02-11T06:01:01.849Z,99912.84
2018-02-11T06:03:30.928Z,99905.64
2018-02-11T06:06:00.014Z,99905.47
2018-02-11T06:08:29.106Z,99904.66
2018-02-11T06:10:58.198Z,99905.80
2018-02-11T06:13:28.069Z,99908.87
2018-02-11T06:15:57.167Z,99899.80
2018-02-11T06:18:27.315Z,99883.20
2018-02-11T06:20:56.403Z,99888.93
2018-02-11T06:23:25.485Z,99880.32
2018-02-11T06:25:54.591Z,99879.18
2018-02-11T06:28:23.677Z,99878.72
2018-02-11T06:30:52.791Z,99875.98
2018-02-11T06:33:21.896Z,99872.75
2018-02-11T06:35:50.988Z,99875.39
2018-02-11T06:38:20.846Z,99875.26
2018-02-11T06:40:49.941Z,99863.58
2018-02-11T06:43:19.022Z,99863.97
2018-02-11T06:45:48.158Z,99853.84
2018-02-11T06:48:17.271Z,99864.11
2018-02-11T06:50:46.393Z,99864.06
2018-02-11T06:53:15.498Z,99850.91
2018-02-11T06:55:44.591Z,99852.43
2018-02-11T06:58:14.462Z,99845.95
2018-02-11T07:00:44.313Z,99851.02
2018-02-11T07:03:14.186Z,99836.11
2018-02-11T07:05:43.286Z,99837.30
2018-02-11T07:08:12.408Z,99829.39
2018-02-11T07:10:42.276Z,99831.02
2018-02-11T07:13:11.354Z,99818.99
2018-02-11T07:15:40.431Z,99816.87
2018-02-11T07:18:09.521Z,99827.33
2018-02-11T07:20:39.369Z,99824.53
2018-02-11T07:23:08.461Z,99828.17
2018-02-11T07:25:38.322Z,99811.72
2018-02-11T07:28:08.189Z,99823.13
2018-02-11T07:30:37.292Z,99821.27
2018-02-11T07:33:06.373Z,99807.69
2018-02-11T07:35:35.479Z,99819.44
2018-02-11T07:38:04.562Z,99804.99
2018-02-11T07:40:33.670Z,99796.14
2018-02-11T07:43:02.756Z,99792.02
2018-02-11T07:45:31.857Z,99786.22
2018-02-11T07:48:00.939Z,99797.38
2018-02-11T07:50:30.068Z,99789.28
2018-02-11T07:52:59.124Z,99793.55
2018-02-11T07:55:28.234Z,99781.91
2018-02-11T07:57:57.319Z,99784.27
2018-02-11T08:00:27.205Z,99776.42
2018-02-11T08:02:57.066Z,99770.79
2018-02-11T08:05:27.099Z,99766.91
2018-02-11T08:07:56.183Z,99775.90
2018-02-11T08:10:25.254Z,99766.00
2018-02-11T08:12:54.373Z,99757.53
2018-02-11T08:15:23.456Z,99766.18
2018-02-11T08:17:52.562Z,99760.65
2018-02-11T08:20:21.620Z,99772.16
2018-02-11T08:22:50.750Z,99771.83
2018-02-11T08:25:19.830Z,99788.58
2018-02-11T08:27:48.936Z,99789.77
2018-02-11T08:30:18.030Z,99783.84
2018-02-11T08:32:47.158Z,99792.31
2018-02-11T08:35:16.272Z,99785.55
2018-02-11T08:37:46.119Z,99778.13
2018-02-11T08:40:15.201Z,99778.88
2018-02-11T08:42:45.094Z,99779.87
2018-02-11T08:45:15.114Z,99784.41
2018-02-11T08:47:44.184Z,99790.51
2018-02-11T08:50:13.320Z,99792.11
2018-02-11T08:52:43.154Z,99786.44
2018-02-11T08:55:13.348Z,99782.14
2018-02-11T08:57:42.448Z,99769.09
2018-02-11T09:00:11.577Z,99773.58
2018-02-11T09:02:40.674Z,99773.25
2018-02-11T09:05:09.762Z,99772.73
2018-02-11T09:07:39.598Z,99763.91
2018-02-11T09:10:08.756Z,99763.69
2018-02-11T09:12:37.830Z,99762.59
2018-02-11T09:15:06.941Z,99754.42
2018-02-11T09:17:36.017Z,99761.27
2018-02-11T09:20:05.115Z,99750.44
2018-02-11T09:22:34.223Z,99752.59
2018-02-11T09:25:04.106Z,99743.03
2018-02-11T09:27:34.238Z,99745.96
2018-02-11T09:30:03.345Z,99750.36
2018-02-11T09:32:32.438Z,99751.98
2018-02-11T09:35:02.353Z,99753.06
2018-02-11T09:37:31.469Z,99753.31
2018-02-11T09:40:01.341Z,99760.47
2018-02-11T09:42:30.444Z,99758.16
2018-02-11T09:44:59.541Z,99752.30
2018-02-11T09:47:28.661Z,99745.38
2018-02-11T09:49:58.530Z,99750.88
2018-02-11T09:52:27.639Z,99742.55
2018-02-11T09:54:56.738Z,99746.43
2018-02-11T09:57:25.850Z,99748.20
2018-02-11T09:59:55.712Z,99745.05
2018-02-11T10:02:24.804Z,99744.90
2018-02-11T10:04:54.661Z,99752.74
2018-02-11T10:07:23.729Z,99743.52
2018-02-11T10:09:52.842Z,99746.69
2018-02-11T10:12:21.957Z,99741.83
2018-02-11T10:14:51.060Z,99736.42
2018-02-11T10:17:20.157Z,99729.86
2018-02-11T10:19:49.239Z,99741.44
2018-02-11T10:22:18.353Z,99732.13
2018-02-11T10:24:47.449Z,99733.67
2018-02-11T10:27:16.538Z,99724.58
2018-02-11T10:29:45.633Z,99732.62
2018-02-11T10:32:16.246Z,99725.52
2018-02-11T10:34:45.394Z,99743.82
2018-02-11T10:37:15.234Z,99742.32
2018-02-11T10:39:44.325Z,99744.73
2018-02-11T10:42:13.433Z,99740.42
2018-02-11T10:44:42.530Z,99749.27
2018-02-11T10:47:11.622Z,99751.64
2018-02-11T10:49:40.726Z,99751.69
2018-02-11T10:52:09.836Z,99740.73
2018-02-11T10:54:39.770Z,99743.27
2018-02-11T10:57:09.919Z,99741.91
2018-02-11T10:59:39.770Z,99733.55
2018-02-11T11:02:09.620Z,99731.64
2018-02-11T11:04:40.248Z,99721.51
2018-02-11T11:07:09.323Z,99711.61
2018-02-11T11:09:38.399Z,99715.66
2018-02-11T11:12:07.499Z,99714.81
2018-02-11T11:14:36.582Z,99712.84
2018-02-11T11:17:05.694Z,99711.59
2018-02-11T11:19:34.860Z,99707.45
2018-02-11T11:22:04.740Z,99704.94
2018-02-11T11:24:33.826Z,99706.33
2018-02-11T11:27:02.934Z,99705.91
2018-02-11T11:29:32.043Z,99700.06
2018-02-11T11:32:01.128Z,99703.92
2018-02-11T11:34:30.247Z,99703.36
2018-02-11T11:37:00.101Z,99702.77
2018-02-11T11:39:29.228Z,99700.52
2018-02-11T11:41:58.359Z,99700.78
2018-02-11T11:44:27.468Z,99699.61
2018-02-11T11:46:56.608Z,99703.36
2018-02-11T11:49:25.702Z,99712.80
2018-02-11T11:51:54.815Z,99697.65
2018-02-11T11:54:23.911Z,99693.44
2018-02-11T11:56:53.038Z,99685.66
2018-02-11T11:59:22.879Z,99697.03
2018-02-11T12:01:51.993Z,99697.98
2018-02-11T12:04:22.050Z,99700.96
2018-02-11T12:06:51.938Z,99700.59
2018-02-11T12:09:21.828Z,99698.00
2018-02-11T12:11:50.992Z,99695.80
2018-02-11T12:14:20.075Z,99700.72
2018-02-11T12:16:49.177Z,99689.34
2018-02-11T12:19:18.269Z,99686.32
2018-02-11T12:21:48.150Z,99693.30
2018-02-11T12:24:17.217Z,99678.94
2018-02-11T12:26:46.305Z,99679.30
2018-02-11T12:29:15.419Z,99667.50
2018-02-11T12:31:44.524Z,99679.77
2018-02-11T12:34:13.631Z,99674.27
2018-02-11T12:36:42.919Z,99679.83
2018-02-11T12:39:12.023Z,99670.39
2018-02-11T12:41:41.116Z,99672.08
2018-02-11T12:44:10.227Z,99677.45
2018-02-11T12:46:40.813Z,99677.95
2018-02-11T12:49:09.914Z,99669.61
2018-02-11T12:51:38.999Z,99670.16
2018-02-11T12:54:08.138Z,99674.75
2018-02-11T12:56:37.249Z,99669.90
2018-02-11T12:59:06.317Z,99662.54
2018-02-11T13:01:35.486Z,99670.91
2018-02-11T13:04:04.554Z,99666.48
2018-02-11T13:06:34.415Z,99660.44
2018-02-11T13:09:03.508Z,99655.42
2018-02-11T13:11:33.393Z,99648.63
2018-02-11T13:14:03.247Z,99644.44
2018-02-11T13:16:32.351Z,99638.98
2018-02-11T13:19:01.454Z,99623.12
2018-02-11T13:21:31.286Z,99617.45
2018-02-11T13:24:01.131Z,99606.97
2018-02-11T13:26:30.230Z,99606.10
2018-02-11T13:28:59.338Z,99612.50
2018-02-11T13:31:28.443Z,99627.94
2018-02-11T13:33:57.541Z,99630.47
2018-02-11T13:36:26.632Z,99619.91
2018-02-11T13:38:55.745Z,99614.94
2018-02-11T13:41:24.822Z,99620.45
2018-02-11T13:43:53.932Z,99608.75
2018-02-11T13:46:26.622Z,99602.02
2018-02-11T13:48:55.746Z,99607.20
2018-02-11T13:51:25.592Z,99601.80
2018-02-11T13:53:54.714Z,99610.43
2018-02-11T13:56:23.797Z,99607.92
2018-02-11T13:58:52.906Z,99594.89
2018-02-11T14:01:21.997Z,99599.95
2018-02-11T14:03:51.849Z,99603.17
2018-02-11T14:06:22.717Z,99606.70
2018-02-11T14:08:51.830Z,99602.28
2018-02-11T14:11:21.210Z,99600.14
2018-02-11T14:13:51.812Z,99597.84
2018-02-11T14:16:21.022Z,99601.19
2018-02-11T14:18:52.131Z,99604.46
2018-02-11T14:21:21.244Z,99604.16
2018-02-11T14:23:51.269Z,99609.09
2018-02-11T14:26:21.803Z,99607.36
2018-02-11T14:28:51.658Z,99607.64
2018-02-11T14:31:20.754Z,99610.84
2018-02-11T14:33:49.858Z,99605.69
2018-02-11T14:36:20.358Z,99609.12
2018-02-11T14:38:50.253Z,99603.85
2018-02-11T14:41:19.329Z,99600.62
2018-02-11T14:43:48.435Z,99603.39
2018-02-11T14:46:17.529Z,99611.61
2018-02-11T14:48:47.691Z,99620.20
2018-02-11T14:51:17.564Z,99615.77
2018-02-11T14:53:47.259Z,99611.97
2018-02-11T14:56:18.094Z,99620.95
2018-02-11T14:58:47.235Z,99614.83
2018-02-11T15:01:18.035Z,99620.23
2018-02-11T15:03:48.662Z,99619.09
2018-02-11T15:06:17.770Z,99620.81
2018-02-11T15:08:46.842Z,99625.73
2018-02-11T15:11:16.695Z,99631.03
2018-02-11T15:13:46.525Z,99636.33
2018-02-11T15:16:15.657Z,99641.93
2018-02-11T15:18:44.757Z,99639.06
2018-02-11T15:21:13.908Z,99632.93
2018-02-11T15:23:43.768Z,99644.22
2018-02-11T15:26:12.872Z,99651.74
2018-02-11T15:28:42.017Z,99653.72
2018-02-11T15:31:11.877Z,99651.09
2018-02-11T15:33:41.744Z,99655.64
2018-02-11T15:36:11.589Z,99654.69
2018-02-11T15:38:40.694Z,99653.41
2018-02-11T15:41:09.791Z,99650.31
2018-02-11T15:43:38.910Z,99640.92
2018-02-11T15:46:08.012Z,99635.63
2018-02-11T15:48:37.119Z,99639.84
2018-02-11T15:51:07.009Z,99648.34
2018-02-11T15:53:36.120Z,99659.87
2018-02-11T15:56:05.244Z,99649.39
2018-02-11T15:58:35.086Z,99657.53
2018-02-11T16:01:04.165Z,99666.05
2018-02-11T16:03:33.284Z,99666.39
2018-02-11T16:06:02.410Z,99665.72
2018-02-11T16:08:31.502Z,99670.73
2018-02-11T16:11:01.375Z,99677.05
2018-02-11T16:26:38.959Z,99680.53
2018-02-11T16:29:08.063Z,99669.50
2018-02-11T16:31:37.952Z,99677.82
2018-02-11T16:34:07.848Z,99675.14
2018-02-11T16:36:36.951Z,99672.48
2018-02-11T16:39:06.029Z,99680.55
2018-02-11T16:41:35.909Z,99680.27
2018-02-11T16:44:05.917Z,99680.71
2018-02-11T16:46:35.009Z,99680.93
2018-02-11T16:49:04.141Z,99679.54
2018-02-11T16:51:33.998Z,99676.75
2018-02-11T16:54:03.503Z,99681.82
2018-02-11T16:56:32.614Z,99685.19
2018-02-11T16:59:01.727Z,99689.45
2018-02-11T17:01:30.806Z,99686.47
2018-02-11T17:03:59.918Z,99682.63
2018-02-11T17:06:29.002Z,99687.70
2018-02-11T17:08:58.888Z,99684.94
2018-02-11T17:11:27.972Z,99701.25
2018-02-11T17:13:57.119Z,99708.52
2018-02-11T17:16:26.960Z,99721.42
2018-02-11T17:18:56.057Z,99720.52
2018-02-11T17:21:26.150Z,99711.77
2018-02-11T17:23:56.957Z,99711.61
2018-02-11T17:26:26.846Z,99720.58
2018-02-11T17:28:55.981Z,99724.79
2018-02-11T17:31:25.865Z,99730.44
2018-02-11T17:33:55.004Z,99732.22
2018-02-11T17:36:24.869Z,99732.16
2018-02-11T17:38:53.960Z,99741.13
2018-02-11T17:41:23.099Z,99744.97
2018-02-11T17:43:52.933Z,99751.84
2018-02-11T17:46:22.095Z,99756.16
2018-02-11T17:48:51.206Z,99756.32
2018-02-11T17:51:21.063Z,99753.50
2018-02-11T17:53:50.178Z,99747.20
2018-02-11T17:56:19.279Z,99748.84
2018-02-11T17:58:48.365Z,99744.69
2018-02-11T18:01:17.461Z,99746.08
2018-02-11T18:03:46.586Z,99751.25
2018-02-11T18:06:15.719Z,99749.23
2018-02-11T18:08:44.932Z,99750.72
2018-02-11T18:11:15.162Z,99754.62
2018-02-11T18:13:45.069Z,99743.46
2018-02-11T18:16:14.149Z,99743.20
2018-02-11T18:18:43.278Z,99759.22
2018-02-11T18:21:12.361Z,99760.86
2018-02-11T18:23:41.484Z,99762.52
2018-02-11T18:26:11.361Z,99770.91
2018-02-11T18:28:40.446Z,99782.59
2018-02-11T18:31:09.578Z,99779.73
2018-02-11T18:33:39.462Z,99779.32
2018-02-11T18:36:09.385Z,99777.52
2018-02-11T18:38:38.463Z,99778.20
2018-02-11T18:41:08.319Z,99775.84
2018-02-11T18:43:37.427Z,99786.30
2018-02-11T18:46:06.537Z,99787.63
2018-02-11T18:48:35.673Z,99794.14
2018-02-11T18:51:04.774Z,99793.83
2018-02-11T18:53:33.890Z,99801.17
2018-02-11T18:56:02.987Z,99803.68
2018-02-11T18:58:32.122Z,99799.00
2018-02-11T19:01:01.240Z,99808.33
2018-02-11T19:03:30.379Z,99810.75
2018-02-11T19:05:59.490Z,99812.38
2018-02-11T19:08:29.363Z,99811.61
2018-02-11T19:10:59.247Z,99814.75
2018-02-11T19:13:29.829Z,99814.43
2018-02-11T19:15:58.978Z,99821.16
2018-02-11T19:18:28.783Z,99825.67
2018-02-11T19:20:58.672Z,99814.89
2018-02-11T19:23:27.796Z,99828.82
2018-02-11T19:25:56.874Z,99819.66
2018-02-11T19:28:25.998Z,99820.78
2018-02-11T19:30:55.954Z,99824.34
2018-02-11T19:33:25.054Z,99832.30
2018-02-11T19:35:54.199Z,99831.91
2018-02-11T19:38:23.336Z,99840.11
2018-02-11T19:40:53.485Z,99832.38
2018-02-11T19:43:22.552Z,99837.02
2018-02-11T19:45:51.648Z,99830.67
2018-02-11T19:48:20.766Z,99832.22
2018-02-11T19:50:49.874Z,99823.47
2018-02-11T19:53:18.969Z,99825.23
2018-02-11T19:55:48.141Z,99838.19
2018-02-11T19:58:17.213Z,99830.34
2018-02-11T20:00:46.351Z,99833.63
2018-02-11T20:03:15.429Z,99841.45
2018-02-11T20:05:44.560Z,99844.27
2018-02-11T20:08:13.673Z,99850.91
2018-02-11T20:10:44.307Z,99853.47
2018-02-11T20:13:13.429Z,99852.27
2018-02-11T20:15:42.549Z,99855.77
2018-02-11T20:18:11.675Z,99862.42
2018-02-11T20:20:40.762Z,99856.51
2018-02-11T20:23:09.878Z,99852.53
2018-02-11T20:25:38.950Z,99855.43
2018-02-11T20:28:08.072Z,99865.91
2018-02-11T20:30:37.165Z,99858.58
2018-02-11T20:33:06.297Z,99862.98
2018-02-11T20:35:36.172Z,99865.36
2018-02-11T20:38:05.286Z,99874.95
2018-02-11T20:40:34.388Z,99878.41
2018-02-11T20:43:04.274Z,99874.03
2018-02-11T20:45:33.397Z,99882.61
2018-02-11T20:48:02.473Z,99885.03
2018-02-11T20:50:31.632Z,99882.09
2018-02-11T20:53:00.743Z,99899.14
2018-02-11T20:55:29.870Z,99895.22
2018-02-11T20:57:58.943Z,99892.22
2018-02-11T21:00:28.070Z,99899.23
2018-02-11T21:02:57.955Z,99901.03
2018-02-11T21:05:27.053Z,99902.65
2018-02-11T21:07:56.187Z,99901.75
2018-02-11T21:10:26.117Z,99906.72
2018-02-11T21:12:55.981Z,99913.87
2018-02-11T21:15:25.370Z,99906.52
2018-02-11T21:17:54.448Z,99911.88
2018-02-11T21:20:24.670Z,99906.67
2018-02-11T21:22:53.765Z,99903.63
2018-02-11T21:25:22.864Z,99910.59
2018-02-11T21:27:52.762Z,99911.06
2018-02-11T21:30:21.877Z,99915.70
2018-02-11T21:32:50.974Z,99925.13
2018-02-11T21:35:20.098Z,99923.20
2018-02-11T21:37:49.210Z,99919.31
2018-02-11T21:40:18.286Z,99916.70
2018-02-11T21:42:47.389Z,99929.34
2018-02-11T21:45:16.502Z,99932.62
2018-02-11T21:47:45.616Z,99933.37
2018-02-11T21:50:15.454Z,99942.09
2018-02-11T21:52:44.591Z,99939.00
2018-02-11T21:55:13.719Z,99949.58
2018-02-11T21:57:43.590Z,99939.20
2018-02-11T22:00:12.721Z,99938.53
2018-02-11T22:02:41.809Z,99948.11
2018-02-11T22:05:11.714Z,99958.81
2018-02-11T22:07:40.807Z,99941.38
2018-02-11T22:10:10.679Z,99950.95
2018-02-11T22:12:39.764Z,99941.00
2018-02-11T22:15:08.890Z,99939.63
2018-02-11T22:17:37.987Z,99942.95
2018-02-11T22:20:07.099Z,99939.68
2018-02-11T22:22:36.201Z,99925.41
2018-02-11T22:25:05.326Z,99929.69
2018-02-11T22:27:35.182Z,99939.06
2018-02-11T22:30:04.293Z,99944.84
2018-02-11T22:32:33.385Z,99934.31
2018-02-11T22:35:02.493Z,99941.33
2018-02-11T22:37:31.614Z,99926.79
2018-02-11T22:40:01.540Z,99916.80
2018-02-11T22:42:30.627Z,99915.71
2018-02-11T22:44:59.708Z,99901.88
2018-02-11T22:47:28.813Z,99915.34
2018-02-11T22:49:58.636Z,99917.08
2018-02-11T22:52:28.510Z,99903.67
2018-02-11T22:54:57.598Z,99905.86
2018-02-11T22:57:26.696Z,99914.67
2018-02-11T22:59:55.774Z,99933.00
2018-02-11T23:02:24.906Z,99935.84
2018-02-11T23:04:53.970Z,99936.98
2018-02-11T23:07:23.040Z,99939.44
2018-02-11T23:09:52.157Z,99946.92
2018-02-11T23:12:21.216Z,99948.49
2018-02-11T23:14:50.318Z,99953.80
2018-02-11T23:17:20.183Z,99948.34
2018-02-11T23:19:52.138Z,99954.64
2018-02-11T23:22:21.254Z,99959.47
2018-02-11T23:24:50.335Z,99972.63
2018-02-11T23:27:19.429Z,99976.23
2018-02-11T23:29:48.528Z,99978.32
2018-02-11T23:32:17.580Z,99993.57
2018-02-11T23:34:46.699Z,99997.88
2018-02-11T23:37:15.782Z,99995.03
2018-02-11T23:39:44.906Z,99994.33
2018-02-11T23:42:13.989Z,99995.06
2018-02-11T23:44:43.085Z,100009.97
2018-02-11T23:47:12.169Z,100000.24
2018-02-11T23:49:41.279Z,100015.60
2018-02-11T23:52:10.375Z,100012.64
2018-02-11T23:54:39.461Z,100007.11
2018-02-11T23:57:08.584Z,100015.44
2018-02-11T23:59:37.672Z,100007.77
